EW8377 Weather Reports


Display with metric or nautical units.
time (UTC)temp
F
wind
direction
speed
MPH
gust
MPH
rain 1hr
in
rain 24hr
in
rain mn
in
humidity
%
barometer
mb
20240621071545 76 146 13.0 22.0 0.00 0.00 0.00 58 1006.8
20240621070059 76 105 14.0 24.0 0.00 0.00 0.00 59 1007.2
20240621064529 76 121 16.0 26.0 0.00 0.00 0.00 60 1007.3
20240621063102 76 110 11.0 20.0 0.00 0.00 0.00 59 1007.5
20240621061519 76 103 12.0 21.0 0.00 0.00 0.00 58 1007.5
20240621060052 77 108 7.0 16.0 0.00 0.00 0.00 58 1007.7
20240621054547 77 83 8.0 15.0 0.00 0.00 0.00 57 1007.8
20240621053143 77 103 11.0 18.0 0.00 0.00 0.00 57 1007.6
20240621051556 77 86 9.0 23.0 0.00 0.00 0.00 57 1007.6
20240621050150 77 105 16.0 28.0 0.00 0.00 0.00 56 1007.5
20240621044543 77 65 14.0 26.0 0.00 0.00 0.00 55 1007.5
20240621043145 77 112 18.0 27.0 0.00 0.00 0.00 54 1007.6
20240621041545 77 82 15.0 25.0 0.00 0.00 0.00 54 1007.1
20240621040143 78 96 9.0 20.0 0.00 0.00 0.00 53 1007.0
20240621034545 78 113 14.0 24.0 0.00 0.00 0.00 52 1006.9
20240621033141 78 94 12.0 26.0 0.00 0.00 0.00 53 1006.7
20240621031555 79 79 12.0 27.0 0.00 0.00 0.00 53 1006.4
20240621030043 79 88 18.0 28.0 0.00 0.00 0.00 52 1006.2
20240621024537 80 109 18.0 27.0 0.00 0.00 0.00 50 1005.8
20240621023000 80 74 16.0 26.0 0.00 0.00 0.00 50 1005.6
20240621021629 81 64 14.0 23.0 0.00 0.00 0.00 49 1005.4
20240621020046 82 101 12.0 22.0 0.00 0.00 0.00 48 1005.2
20240621014637 82 96 13.0 25.0 0.00 0.00 0.00 47 1005.0
20240621013100 83 93 16.0 26.0 0.00 0.00 0.00 46 1004.7
20240621011532 84 104 16.0 33.0 0.00 0.00 0.00 45 1004.4
20240621010038 85 110 16.0 26.0 0.00 0.00 0.00 43 1004.3
20240621004544 85 108 12.0 25.0 0.00 0.00 0.00 43 1004.1
20240621003036 85 155 17.0 26.0 0.00 0.00 0.00 43 1004.2
20240621001541 85 77 13.0 25.0 0.00 0.00 0.00 42 1003.8
20240621000033 86 99 16.0 25.0 0.00 0.00 0.00 42 1003.9
20240620234532 87 95 19.0 31.0 0.00 0.00 0.00 41 1003.8
20240620233031 86 99 17.0 27.0 0.00 0.00 0.00 41 1003.7
20240620231534 87 74 15.0 23.0 0.00 0.00 0.00 40 1003.7
20240620230043 87 71 17.0 30.0 0.00 0.00 0.00 39 1003.9
20240620224526 88 78 12.0 23.0 0.00 0.00 0.00 39 1004.0
20240620223039 87 104 11.0 22.0 0.00 0.00 0.00 40 1004.3
20240620221532 88 110 13.0 24.0 0.00 0.00 0.00 39 1004.5
20240620220023 87 115 12.0 23.0 0.00 0.00 0.00 40 1004.7
20240620214522 86 78 16.0 24.0 0.00 0.00 0.00 41 1004.8
20240620213021 87 168 12.0 24.0 0.00 0.00 0.00 40 1004.9
20240620211520 87 73 11.0 20.0 0.00 0.00 0.00 41 1005.1
20240620210019 87 113 16.0 27.0 0.00 0.00 0.00 40 1005.4
20240620204528 85 149 13.0 23.0 0.00 0.00 0.00 42 1005.5
20240620203016 85 78 12.0 21.0 0.00 0.00 0.00 42 1005.9
20240620201515 86 129 10.0 21.0 0.00 0.00 0.00 42 1006.2
20240620200012 85 86 14.0 20.0 0.00 0.00 0.00 43 1006.3
20240620194514 85 77 11.0 20.0 0.00 0.00 0.00 43 1006.5
20240620193010 84 78 10.0 20.0 0.00 0.00 0.00 45 1006.8
20240620191509 83 59 15.0 22.0 0.00 0.00 0.00 45 1006.7
20240620190006 82 84 13.0 20.0 0.00 0.00 0.00 48 1007.0
20240620184505 82 139 7.0 19.0 0.00 0.00 0.00 47 1007.2
20240620183005 81 96 10.0 19.0 0.00 0.00 0.00 49 1007.4
20240620181503 81 70 7.0 18.0 0.00 0.00 0.00 49 1007.7
20240620180128 80 99 6.0 20.0 0.00 0.00 0.00 51 1007.8
20240620174558 80 96 9.0 16.0 0.00 0.00 0.00 52 1007.8
20240620173056 79 75 9.0 18.0 0.00 0.00 0.00 54 1008.1
20240620171606 78 85 8.0 18.0 0.00 0.00 0.00 55 1008.1
20240620170055 78 81 4.0 17.0 0.00 0.00 0.00 57 1008.3
20240620164553 77 98 9.0 18.0 0.00 0.00 0.00 56 1008.1
20240620163053 78 60 12.0 19.0 0.00 0.00 0.00 56 1008.1
20240620161555 76 78 11.0 21.0 0.00 0.00 0.00 58 1008.0
20240620160049 76 94 12.0 22.0 0.00 0.00 0.00 59 1007.9
20240620154559 76 119 14.0 23.0 0.00 0.00 0.00 57 1007.8
20240620153048 77 131 15.0 25.0 0.00 0.00 0.00 56 1007.7
20240620151547 77 96 11.0 19.0 0.00 0.00 0.00 55 1007.6
20240620150045 76 105 9.0 19.0 0.00 0.00 0.00 57 1007.6
20240620144544 76 81 10.0 17.0 0.00 0.00 0.00 58 1007.6
20240620143043 76 108 11.0 21.0 0.00 0.00 0.00 59 1007.4
20240620141543 76 101 10.0 22.0 0.00 0.00 0.00 59 1007.1
20240620140052 76 103 10.0 20.0 0.00 0.00 0.00 58 1006.9
20240620134541 76 63 14.0 22.0 0.00 0.00 0.00 56 1006.7
20240620133039 75 106 11.0 18.0 0.00 0.00 0.00 58 1006.7
20240620131535 74 76 4.0 12.0 0.00 0.00 0.00 60 1006.5
20240620130033 74 81 6.0 15.0 0.00 0.00 0.00 62 1006.4
20240620124531 73 110 6.0 15.0 0.00 0.00 0.00 65 1006.2
20240620123030 73 101 11.0 19.0 0.00 0.00 0.00 66 1005.9
20240620121531 73 109 10.0 17.0 0.00 0.00 0.00 65 1005.6
20240620120024 74 111 13.0 20.0 0.00 0.00 0.00 63 1005.4
20240620114520 74 77 12.0 19.0 0.00 0.00 0.00 61 1005.0
20240620113017 74 81 9.0 15.0 0.00 0.00 0.00 61 1004.8
20240620111513 75 119 0.0 10.0 0.00 0.00 0.00 57 1004.6
20240620110012 76 86 2.0 14.0 0.00 0.00 0.00 57 1004.3
20240620104508 76 79 8.0 12.0 0.00 0.00 0.00 57 1004.1
20240620103009 75 53 4.0 10.0 0.00 0.00 0.00 58 1004.1
20240620101506 76 115 6.0 15.0 0.00 0.00 0.00 59 1004.1
20240620100004 76 205 3.0 15.0 0.00 0.00 0.00 56 1003.7
20240620094507 77 105 6.0 17.0 0.00 0.00 0.00 52 1003.6
20240620093111 78 90 8.0 20.0 0.00 0.00 0.00 51 1003.2
20240620091601 77 110 4.0 19.0 0.00 0.00 0.00 53 1003.0
20240620091531 77 101 7.0 19.0 0.00 0.00 0.00 53 1003.0
20240620090059 77 79 16.0 29.0 0.00 0.00 0.00 54 1002.8
20240620084557 76 115 10.0 17.0 0.00 0.00 0.00 57 1003.0
20240620083058 77 231 8.0 18.0 0.00 0.00 0.00 56 1003.1
20240620081551 77 244 0.0 10.0 0.00 0.00 0.00 52 1002.9
20240620080050 78 46 2.0 13.0 0.00 0.00 0.00 50 1002.4
20240620074547 78 103 8.0 21.0 0.00 0.00 0.00 50 1002.4
20240620073046 78 148 16.0 32.0 0.00 0.00 0.00 52 1002.0